sensor_id;sensor_type;location;lat;lon;timestamp;P1;durP1;ratioP1;P2;durP2;ratioP2
22849;SDS011;11591;44.792;10.358;2022-11-15T00:00:56;43.55;;;18.02;;
22849;SDS011;11591;44.792;10.358;2022-11-15T00:03:40;45.47;;;19.35;;
22849;SDS011;11591;44.792;10.358;2022-11-15T00:06:25;41.50;;;18.65;;
22849;SDS011;11591;44.792;10.358;2022-11-15T00:09:09;41.97;;;17.65;;
22849;SDS011;11591;44.792;10.358;2022-11-15T00:11:54;44.85;;;18.92;;
22849;SDS011;11591;44.792;10.358;2022-11-15T00:14:38;43.35;;;17.95;;
22849;SDS011;11591;44.792;10.358;2022-11-15T00:17:22;49.40;;;19.55;;
22849;SDS011;11591;44.792;10.358;2022-11-15T00:20:06;43.88;;;18.58;;
22849;SDS011;11591;44.792;10.358;2022-11-15T00:22:51;45.72;;;18.08;;
22849;SDS011;11591;44.792;10.358;2022-11-15T00:25:35;41.55;;;16.63;;
22849;SDS011;11591;44.792;10.358;2022-11-15T00:28:19;45.00;;;17.88;;
22849;SDS011;11591;44.792;10.358;2022-11-15T00:31:04;39.88;;;16.95;;
22849;SDS011;11591;44.792;10.358;2022-11-15T00:33:52;44.15;;;17.88;;
22849;SDS011;11591;44.792;10.358;2022-11-15T00:36:36;40.95;;;18.05;;
22849;SDS011;11591;44.792;10.358;2022-11-15T00:39:20;45.40;;;18.63;;
22849;SDS011;11591;44.792;10.358;2022-11-15T00:42:05;39.42;;;17.35;;
22849;SDS011;11591;44.792;10.358;2022-11-15T00:44:49;50.50;;;19.33;;
22849;SDS011;11591;44.792;10.358;2022-11-15T00:47:33;46.47;;;18.10;;
22849;SDS011;11591;44.792;10.358;2022-11-15T00:50:17;46.67;;;18.52;;
22849;SDS011;11591;44.792;10.358;2022-11-15T00:53:02;43.75;;;19.20;;
22849;SDS011;11591;44.792;10.358;2022-11-15T00:55:46;48.53;;;19.25;;
22849;SDS011;11591;44.792;10.358;2022-11-15T00:58:30;40.28;;;17.40;;
22849;SDS011;11591;44.792;10.358;2022-11-15T01:01:14;46.90;;;17.52;;
22849;SDS011;11591;44.792;10.358;2022-11-15T01:03:58;41.05;;;17.75;;
22849;SDS011;11591;44.792;10.358;2022-11-15T01:06:42;38.25;;;15.60;;
22849;SDS011;11591;44.792;10.358;2022-11-15T01:09:27;39.80;;;16.10;;
22849;SDS011;11591;44.792;10.358;2022-11-15T01:12:11;36.17;;;14.98;;
22849;SDS011;11591;44.792;10.358;2022-11-15T01:14:55;37.28;;;15.73;;
22849;SDS011;11591;44.792;10.358;2022-11-15T01:17:39;32.90;;;14.77;;
22849;SDS011;11591;44.792;10.358;2022-11-15T01:20:24;35.22;;;14.77;;
22849;SDS011;11591;44.792;10.358;2022-11-15T01:23:08;32.97;;;14.38;;
22849;SDS011;11591;44.792;10.358;2022-11-15T01:25:57;40.65;;;15.52;;
22849;SDS011;11591;44.792;10.358;2022-11-15T01:28:42;35.80;;;14.45;;
22849;SDS011;11591;44.792;10.358;2022-11-15T01:31:26;35.20;;;14.43;;
22849;SDS011;11591;44.792;10.358;2022-11-15T01:34:11;37.78;;;14.90;;
22849;SDS011;11591;44.792;10.358;2022-11-15T01:36:55;35.63;;;14.30;;
22849;SDS011;11591;44.792;10.358;2022-11-15T01:39:39;33.03;;;13.57;;
22849;SDS011;11591;44.792;10.358;2022-11-15T01:42:23;32.90;;;14.25;;
22849;SDS011;11591;44.792;10.358;2022-11-15T01:45:12;38.65;;;14.50;;
22849;SDS011;11591;44.792;10.358;2022-11-15T01:47:58;34.40;;;13.80;;
22849;SDS011;11591;44.792;10.358;2022-11-15T01:50:43;34.75;;;14.75;;
22849;SDS011;11591;44.792;10.358;2022-11-15T01:53:28;39.15;;;15.52;;
22849;SDS011;11591;44.792;10.358;2022-11-15T01:56:16;32.78;;;13.52;;
22849;SDS011;11591;44.792;10.358;2022-11-15T01:59:06;31.80;;;12.73;;
22849;SDS011;11591;44.792;10.358;2022-11-15T02:01:52;38.22;;;16.33;;
22849;SDS011;11591;44.792;10.358;2022-11-15T02:04:44;34.65;;;15.20;;
22849;SDS011;11591;44.792;10.358;2022-11-15T02:07:29;35.50;;;14.65;;
22849;SDS011;11591;44.792;10.358;2022-11-15T02:10:20;36.33;;;15.45;;
22849;SDS011;11591;44.792;10.358;2022-11-15T02:13:06;37.00;;;16.10;;
22849;SDS011;11591;44.792;10.358;2022-11-15T02:19:02;41.65;;;16.33;;
22849;SDS011;11591;44.792;10.358;2022-11-15T02:34:53;36.13;;;15.07;;
22849;SDS011;11591;44.792;10.358;2022-11-15T02:43:27;34.05;;;14.18;;
22849;SDS011;11591;44.792;10.358;2022-11-15T02:49:59;35.45;;;14.38;;
22849;SDS011;11591;44.792;10.358;2022-11-15T02:52:45;35.35;;;14.52;;
22849;SDS011;11591;44.792;10.358;2022-11-15T02:55:33;40.70;;;14.15;;
22849;SDS011;11591;44.792;10.358;2022-11-15T03:01:13;34.85;;;14.85;;
22849;SDS011;11591;44.792;10.358;2022-11-15T03:04:26;40.55;;;14.77;;
22849;SDS011;11591;44.792;10.358;2022-11-15T03:07:37;34.33;;;14.68;;
22849;SDS011;11591;44.792;10.358;2022-11-15T03:19:14;36.72;;;14.82;;
22849;SDS011;11591;44.792;10.358;2022-11-15T03:22:01;36.22;;;13.85;;
22849;SDS011;11591;44.792;10.358;2022-11-15T03:24:51;37.38;;;15.40;;
22849;SDS011;11591;44.792;10.358;2022-11-15T03:27:40;34.85;;;14.18;;
22849;SDS011;11591;44.792;10.358;2022-11-15T03:30:27;36.42;;;14.55;;
22849;SDS011;11591;44.792;10.358;2022-11-15T03:33:14;34.47;;;15.18;;
22849;SDS011;11591;44.792;10.358;2022-11-15T03:35:59;31.33;;;13.50;;
22849;SDS011;11591;44.792;10.358;2022-11-15T03:38:44;37.28;;;14.85;;
22849;SDS011;11591;44.792;10.358;2022-11-15T03:41:39;32.83;;;14.07;;
22849;SDS011;11591;44.792;10.358;2022-11-15T03:44:52;33.45;;;14.50;;
22849;SDS011;11591;44.792;10.358;2022-11-15T03:47:43;30.33;;;13.68;;
22849;SDS011;11591;44.792;10.358;2022-11-15T03:50:32;34.50;;;13.50;;
22849;SDS011;11591;44.792;10.358;2022-11-15T03:53:18;36.30;;;14.90;;
22849;SDS011;11591;44.792;10.358;2022-11-15T03:56:03;35.08;;;14.35;;
22849;SDS011;11591;44.792;10.358;2022-11-15T03:58:47;31.30;;;13.40;;
22849;SDS011;11591;44.792;10.358;2022-11-15T04:01:31;29.13;;;13.77;;
22849;SDS011;11591;44.792;10.358;2022-11-15T04:04:15;32.63;;;13.52;;
22849;SDS011;11591;44.792;10.358;2022-11-15T04:06:59;32.53;;;13.98;;
22849;SDS011;11591;44.792;10.358;2022-11-15T04:09:43;33.50;;;13.95;;
22849;SDS011;11591;44.792;10.358;2022-11-15T04:12:46;33.70;;;14.95;;
22849;SDS011;11591;44.792;10.358;2022-11-15T04:15:31;33.75;;;13.98;;
22849;SDS011;11591;44.792;10.358;2022-11-15T04:18:15;31.33;;;13.98;;
22849;SDS011;11591;44.792;10.358;2022-11-15T04:21:00;41.88;;;15.80;;
22849;SDS011;11591;44.792;10.358;2022-11-15T04:24:03;35.28;;;15.38;;
22849;SDS011;11591;44.792;10.358;2022-11-15T04:26:55;39.08;;;15.93;;
22849;SDS011;11591;44.792;10.358;2022-11-15T04:29:40;38.05;;;16.08;;
22849;SDS011;11591;44.792;10.358;2022-11-15T04:32:24;37.08;;;15.35;;
22849;SDS011;11591;44.792;10.358;2022-11-15T04:35:08;37.35;;;16.80;;
22849;SDS011;11591;44.792;10.358;2022-11-15T04:37:53;38.38;;;14.57;;
22849;SDS011;11591;44.792;10.358;2022-11-15T04:40:38;37.55;;;15.38;;
22849;SDS011;11591;44.792;10.358;2022-11-15T04:43:22;37.50;;;15.88;;
22849;SDS011;11591;44.792;10.358;2022-11-15T04:46:06;41.55;;;16.85;;
22849;SDS011;11591;44.792;10.358;2022-11-15T04:48:51;37.08;;;15.40;;
22849;SDS011;11591;44.792;10.358;2022-11-15T04:51:36;35.50;;;14.98;;
22849;SDS011;11591;44.792;10.358;2022-11-15T04:54:20;38.10;;;15.70;;
22849;SDS011;11591;44.792;10.358;2022-11-15T04:57:04;34.63;;;15.15;;
22849;SDS011;11591;44.792;10.358;2022-11-15T04:59:49;31.65;;;13.85;;
22849;SDS011;11591;44.792;10.358;2022-11-15T05:02:33;34.70;;;14.70;;
22849;SDS011;11591;44.792;10.358;2022-11-15T05:05:36;33.35;;;14.05;;
22849;SDS011;11591;44.792;10.358;2022-11-15T05:08:21;32.90;;;14.48;;
22849;SDS011;11591;44.792;10.358;2022-11-15T05:11:05;31.48;;;13.15;;
22849;SDS011;11591;44.792;10.358;2022-11-15T05:13:49;31.67;;;13.27;;
22849;SDS011;11591;44.792;10.358;2022-11-15T05:16:34;28.98;;;12.65;;
22849;SDS011;11591;44.792;10.358;2022-11-15T05:19:18;31.50;;;12.57;;
22849;SDS011;11591;44.792;10.358;2022-11-15T05:22:02;33.08;;;13.95;;
22849;SDS011;11591;44.792;10.358;2022-11-15T05:24:46;33.33;;;13.88;;
22849;SDS011;11591;44.792;10.358;2022-11-15T05:27:31;29.92;;;14.15;;
22849;SDS011;11591;44.792;10.358;2022-11-15T05:30:16;32.78;;;12.88;;
22849;SDS011;11591;44.792;10.358;2022-11-15T05:33:01;38.03;;;14.07;;
22849;SDS011;11591;44.792;10.358;2022-11-15T05:35:50;31.33;;;14.52;;
22849;SDS011;11591;44.792;10.358;2022-11-15T05:38:41;30.42;;;13.50;;
22849;SDS011;11591;44.792;10.358;2022-11-15T05:44:36;31.13;;;13.80;;
22849;SDS011;11591;44.792;10.358;2022-11-15T05:47:24;30.42;;;13.75;;
22849;SDS011;11591;44.792;10.358;2022-11-15T05:50:12;30.55;;;13.23;;
22849;SDS011;11591;44.792;10.358;2022-11-15T05:52:57;35.15;;;13.70;;
22849;SDS011;11591;44.792;10.358;2022-11-15T05:55:43;33.90;;;14.55;;
22849;SDS011;11591;44.792;10.358;2022-11-15T05:58:27;31.75;;;13.73;;
22849;SDS011;11591;44.792;10.358;2022-11-15T06:01:11;31.48;;;13.88;;
22849;SDS011;11591;44.792;10.358;2022-11-15T06:03:56;32.88;;;13.95;;
22849;SDS011;11591;44.792;10.358;2022-11-15T06:06:41;32.55;;;13.45;;
22849;SDS011;11591;44.792;10.358;2022-11-15T06:09:25;37.55;;;14.85;;
22849;SDS011;11591;44.792;10.358;2022-11-15T06:12:09;34.22;;;14.45;;
22849;SDS011;11591;44.792;10.358;2022-11-15T06:14:53;30.10;;;14.18;;
22849;SDS011;11591;44.792;10.358;2022-11-15T06:17:37;31.60;;;13.20;;
22849;SDS011;11591;44.792;10.358;2022-11-15T06:20:21;28.77;;;13.48;;
22849;SDS011;11591;44.792;10.358;2022-11-15T06:23:06;32.88;;;13.52;;
22849;SDS011;11591;44.792;10.358;2022-11-15T06:25:50;30.77;;;13.30;;
22849;SDS011;11591;44.792;10.358;2022-11-15T06:28:34;31.75;;;13.88;;
22849;SDS011;11591;44.792;10.358;2022-11-15T06:31:18;30.23;;;13.95;;
22849;SDS011;11591;44.792;10.358;2022-11-15T06:34:03;31.40;;;13.10;;
22849;SDS011;11591;44.792;10.358;2022-11-15T06:36:47;32.80;;;13.57;;
22849;SDS011;11591;44.792;10.358;2022-11-15T06:39:31;32.78;;;14.00;;
22849;SDS011;11591;44.792;10.358;2022-11-15T06:42:15;33.83;;;13.38;;
22849;SDS011;11591;44.792;10.358;2022-11-15T06:44:59;34.60;;;13.95;;
22849;SDS011;11591;44.792;10.358;2022-11-15T06:47:44;29.95;;;13.57;;
22849;SDS011;11591;44.792;10.358;2022-11-15T06:50:30;28.10;;;13.02;;
22849;SDS011;11591;44.792;10.358;2022-11-15T06:53:14;33.55;;;13.10;;
22849;SDS011;11591;44.792;10.358;2022-11-15T06:56:02;32.67;;;13.32;;
22849;SDS011;11591;44.792;10.358;2022-11-15T06:58:48;33.30;;;13.07;;
22849;SDS011;11591;44.792;10.358;2022-11-15T07:01:32;30.73;;;13.52;;
22849;SDS011;11591;44.792;10.358;2022-11-15T07:04:16;26.70;;;12.32;;
22849;SDS011;11591;44.792;10.358;2022-11-15T07:07:01;30.40;;;13.40;;
22849;SDS011;11591;44.792;10.358;2022-11-15T07:09:45;30.38;;;13.32;;
22849;SDS011;11591;44.792;10.358;2022-11-15T07:12:29;38.13;;;13.55;;
22849;SDS011;11591;44.792;10.358;2022-11-15T07:15:13;28.23;;;13.13;;
22849;SDS011;11591;44.792;10.358;2022-11-15T07:18:01;36.65;;;16.08;;
22849;SDS011;11591;44.792;10.358;2022-11-15T07:20:46;29.00;;;12.85;;
22849;SDS011;11591;44.792;10.358;2022-11-15T07:23:31;31.15;;;12.95;;
22849;SDS011;11591;44.792;10.358;2022-11-15T07:26:15;28.63;;;13.18;;
22849;SDS011;11591;44.792;10.358;2022-11-15T07:29:00;29.50;;;12.20;;
22849;SDS011;11591;44.792;10.358;2022-11-15T07:31:44;27.45;;;12.65;;
22849;SDS011;11591;44.792;10.358;2022-11-15T07:34:28;29.73;;;13.45;;
22849;SDS011;11591;44.792;10.358;2022-11-15T07:37:12;28.35;;;12.43;;
22849;SDS011;11591;44.792;10.358;2022-11-15T07:39:56;30.35;;;13.02;;
22849;SDS011;11591;44.792;10.358;2022-11-15T07:42:40;27.38;;;12.25;;
22849;SDS011;11591;44.792;10.358;2022-11-15T07:45:43;28.92;;;12.90;;
22849;SDS011;11591;44.792;10.358;2022-11-15T07:48:29;27.77;;;12.50;;
22849;SDS011;11591;44.792;10.358;2022-11-15T07:51:14;28.63;;;13.45;;
22849;SDS011;11591;44.792;10.358;2022-11-15T07:54:00;30.23;;;13.85;;
22849;SDS011;11591;44.792;10.358;2022-11-15T07:56:44;29.48;;;12.70;;
22849;SDS011;11591;44.792;10.358;2022-11-15T07:59:28;29.48;;;13.85;;
22849;SDS011;11591;44.792;10.358;2022-11-15T08:02:13;28.20;;;12.85;;
22849;SDS011;11591;44.792;10.358;2022-11-15T08:04:59;29.13;;;13.43;;
22849;SDS011;11591;44.792;10.358;2022-11-15T08:07:44;31.42;;;13.75;;
22849;SDS011;11591;44.792;10.358;2022-11-15T08:10:28;35.78;;;14.20;;
22849;SDS011;11591;44.792;10.358;2022-11-15T08:13:13;58.20;;;26.55;;
22849;SDS011;11591;44.792;10.358;2022-11-15T08:15:58;32.40;;;14.85;;
22849;SDS011;11591;44.792;10.358;2022-11-15T08:18:43;33.35;;;15.38;;
22849;SDS011;11591;44.792;10.358;2022-11-15T08:21:28;32.63;;;14.43;;
22849;SDS011;11591;44.792;10.358;2022-11-15T08:24:12;32.60;;;14.13;;
22849;SDS011;11591;44.792;10.358;2022-11-15T08:26:56;34.28;;;14.57;;
22849;SDS011;11591;44.792;10.358;2022-11-15T08:29:41;36.50;;;16.23;;
22849;SDS011;11591;44.792;10.358;2022-11-15T08:32:26;36.45;;;15.43;;
22849;SDS011;11591;44.792;10.358;2022-11-15T08:35:10;40.53;;;16.63;;
22849;SDS011;11591;44.792;10.358;2022-11-15T08:37:55;38.00;;;15.55;;
22849;SDS011;11591;44.792;10.358;2022-11-15T08:40:40;36.97;;;15.90;;
22849;SDS011;11591;44.792;10.358;2022-11-15T08:43:24;38.28;;;15.48;;
22849;SDS011;11591;44.792;10.358;2022-11-15T08:46:10;40.55;;;16.52;;
22849;SDS011;11591;44.792;10.358;2022-11-15T08:48:56;38.35;;;15.80;;
22849;SDS011;11591;44.792;10.358;2022-11-15T08:51:40;37.95;;;16.70;;
22849;SDS011;11591;44.792;10.358;2022-11-15T08:54:25;36.47;;;15.93;;
22849;SDS011;11591;44.792;10.358;2022-11-15T08:57:10;37.72;;;15.98;;
22849;SDS011;11591;44.792;10.358;2022-11-15T08:59:54;42.72;;;17.55;;
22849;SDS011;11591;44.792;10.358;2022-11-15T09:02:39;46.03;;;17.88;;
22849;SDS011;11591;44.792;10.358;2022-11-15T09:05:23;44.97;;;18.30;;
22849;SDS011;11591;44.792;10.358;2022-11-15T09:08:08;42.50;;;17.60;;
22849;SDS011;11591;44.792;10.358;2022-11-15T09:10:52;42.88;;;19.33;;
22849;SDS011;11591;44.792;10.358;2022-11-15T09:13:36;49.60;;;22.02;;
22849;SDS011;11591;44.792;10.358;2022-11-15T09:16:21;53.75;;;23.55;;
22849;SDS011;11591;44.792;10.358;2022-11-15T09:19:05;45.75;;;20.15;;
22849;SDS011;11591;44.792;10.358;2022-11-15T09:21:49;48.13;;;19.52;;
22849;SDS011;11591;44.792;10.358;2022-11-15T09:24:34;50.78;;;20.10;;
22849;SDS011;11591;44.792;10.358;2022-11-15T09:27:19;47.00;;;19.17;;
22849;SDS011;11591;44.792;10.358;2022-11-15T09:30:03;47.78;;;18.85;;
22849;SDS011;11591;44.792;10.358;2022-11-15T09:32:48;46.03;;;18.75;;
22849;SDS011;11591;44.792;10.358;2022-11-15T09:35:32;50.90;;;20.10;;
22849;SDS011;11591;44.792;10.358;2022-11-15T09:38:16;48.03;;;19.35;;
22849;SDS011;11591;44.792;10.358;2022-11-15T09:44:18;48.33;;;19.95;;
22849;SDS011;11591;44.792;10.358;2022-11-15T09:50:00;49.33;;;20.52;;
22849;SDS011;11591;44.792;10.358;2022-11-15T09:52:32;47.45;;;20.17;;
22849;SDS011;11591;44.792;10.358;2022-11-15T09:55:00;44.60;;;20.08;;
22849;SDS011;11591;44.792;10.358;2022-11-15T10:05:16;46.15;;;18.92;;
22849;SDS011;11591;44.792;10.358;2022-11-15T10:07:54;46.28;;;20.55;;
22849;SDS011;11591;44.792;10.358;2022-11-15T10:10:44;46.75;;;20.63;;
22849;SDS011;11591;44.792;10.358;2022-11-15T10:13:23;49.83;;;20.50;;
22849;SDS011;11591;44.792;10.358;2022-11-15T10:16:40;51.95;;;22.20;;
22849;SDS011;11591;44.792;10.358;2022-11-15T10:24:42;50.45;;;21.25;;
22849;SDS011;11591;44.792;10.358;2022-11-15T10:27:11;56.50;;;22.52;;
22849;SDS011;11591;44.792;10.358;2022-11-15T10:29:42;56.08;;;22.02;;
22849;SDS011;11591;44.792;10.358;2022-11-15T10:32:13;48.30;;;21.38;;
22849;SDS011;11591;44.792;10.358;2022-11-15T10:34:42;52.75;;;21.73;;
22849;SDS011;11591;44.792;10.358;2022-11-15T10:37:08;47.42;;;20.88;;
22849;SDS011;11591;44.792;10.358;2022-11-15T10:39:35;45.05;;;19.67;;
22849;SDS011;11591;44.792;10.358;2022-11-15T10:44:53;45.38;;;19.75;;
22849;SDS011;11591;44.792;10.358;2022-11-15T10:50:04;50.25;;;21.55;;
22849;SDS011;11591;44.792;10.358;2022-11-15T10:52:51;51.80;;;21.75;;
22849;SDS011;11591;44.792;10.358;2022-11-15T10:57:48;59.72;;;23.17;;
22849;SDS011;11591;44.792;10.358;2022-11-15T11:00:27;51.50;;;21.90;;
22849;SDS011;11591;44.792;10.358;2022-11-15T11:02:58;53.72;;;21.95;;
22849;SDS011;11591;44.792;10.358;2022-11-15T11:05:37;54.50;;;22.40;;
22849;SDS011;11591;44.792;10.358;2022-11-15T11:08:19;52.20;;;22.20;;
22849;SDS011;11591;44.792;10.358;2022-11-15T11:13:33;51.38;;;22.55;;
22849;SDS011;11591;44.792;10.358;2022-11-15T11:21:40;56.92;;;23.60;;
22849;SDS011;11591;44.792;10.358;2022-11-15T11:24:36;56.10;;;22.90;;
22849;SDS011;11591;44.792;10.358;2022-11-15T11:27:32;55.45;;;22.50;;
22849;SDS011;11591;44.792;10.358;2022-11-15T11:30:38;55.55;;;22.95;;
22849;SDS011;11591;44.792;10.358;2022-11-15T11:35:59;56.58;;;23.55;;
22849;SDS011;11591;44.792;10.358;2022-11-15T11:48:57;55.28;;;23.50;;
22849;SDS011;11591;44.792;10.358;2022-11-15T11:52:02;58.85;;;23.30;;
22849;SDS011;11591;44.792;10.358;2022-11-15T12:00:25;58.88;;;23.55;;
22849;SDS011;11591;44.792;10.358;2022-11-15T12:08:01;54.05;;;23.40;;
22849;SDS011;11591;44.792;10.358;2022-11-15T12:10:52;56.35;;;22.08;;
22849;SDS011;11591;44.792;10.358;2022-11-15T12:13:25;58.42;;;23.05;;
22849;SDS011;11591;44.792;10.358;2022-11-15T12:15:59;54.90;;;22.85;;
22849;SDS011;11591;44.792;10.358;2022-11-15T12:18:51;55.30;;;23.35;;
22849;SDS011;11591;44.792;10.358;2022-11-15T12:23:54;54.67;;;22.65;;
22849;SDS011;11591;44.792;10.358;2022-11-15T12:26:26;51.90;;;22.65;;
22849;SDS011;11591;44.792;10.358;2022-11-15T12:29:01;59.28;;;24.77;;
22849;SDS011;11591;44.792;10.358;2022-11-15T12:34:01;60.22;;;24.35;;
22849;SDS011;11591;44.792;10.358;2022-11-15T12:36:40;55.97;;;23.20;;
22849;SDS011;11591;44.792;10.358;2022-11-15T12:39:10;56.22;;;22.70;;
22849;SDS011;11591;44.792;10.358;2022-11-15T12:41:41;54.08;;;23.27;;
22849;SDS011;11591;44.792;10.358;2022-11-15T12:44:12;51.55;;;21.77;;
22849;SDS011;11591;44.792;10.358;2022-11-15T12:47:32;53.90;;;23.25;;
22849;SDS011;11591;44.792;10.358;2022-11-15T12:49:52;56.35;;;22.00;;
22849;SDS011;11591;44.792;10.358;2022-11-15T12:52:18;49.67;;;21.60;;
22849;SDS011;11591;44.792;10.358;2022-11-15T12:55:08;53.72;;;22.27;;
22849;SDS011;11591;44.792;10.358;2022-11-15T12:57:53;54.90;;;22.15;;
22849;SDS011;11591;44.792;10.358;2022-11-15T13:02:45;56.17;;;23.48;;
22849;SDS011;11591;44.792;10.358;2022-11-15T13:10:29;50.08;;;20.88;;
22849;SDS011;11591;44.792;10.358;2022-11-15T13:13:03;55.85;;;21.52;;
22849;SDS011;11591;44.792;10.358;2022-11-15T13:18:40;50.10;;;20.85;;
22849;SDS011;11591;44.792;10.358;2022-11-15T13:21:18;48.28;;;21.42;;
22849;SDS011;11591;44.792;10.358;2022-11-15T13:24:04;55.85;;;22.50;;
22849;SDS011;11591;44.792;10.358;2022-11-15T13:26:35;50.35;;;20.80;;
22849;SDS011;11591;44.792;10.358;2022-11-15T13:29:04;48.05;;;20.15;;
22849;SDS011;11591;44.792;10.358;2022-11-15T13:31:43;51.20;;;20.60;;
22849;SDS011;11591;44.792;10.358;2022-11-15T13:34:17;50.70;;;19.65;;
22849;SDS011;11591;44.792;10.358;2022-11-15T13:36:53;49.67;;;19.70;;
22849;SDS011;11591;44.792;10.358;2022-11-15T13:39:25;50.85;;;21.33;;
22849;SDS011;11591;44.792;10.358;2022-11-15T13:41:54;48.50;;;18.92;;
22849;SDS011;11591;44.792;10.358;2022-11-15T13:44:21;42.53;;;18.90;;
22849;SDS011;11591;44.792;10.358;2022-11-15T13:46:48;41.03;;;18.33;;
22849;SDS011;11591;44.792;10.358;2022-11-15T13:49:37;45.72;;;19.77;;
22849;SDS011;11591;44.792;10.358;2022-11-15T13:52:04;45.85;;;19.83;;
22849;SDS011;11591;44.792;10.358;2022-11-15T13:54:40;44.80;;;18.35;;
22849;SDS011;11591;44.792;10.358;2022-11-15T13:59:54;39.92;;;17.45;;
22849;SDS011;11591;44.792;10.358;2022-11-15T14:02:26;40.20;;;18.02;;
22849;SDS011;11591;44.792;10.358;2022-11-15T14:04:58;42.28;;;18.38;;
22849;SDS011;11591;44.792;10.358;2022-11-15T14:07:40;44.17;;;18.52;;
22849;SDS011;11591;44.792;10.358;2022-11-15T14:10:28;41.60;;;17.92;;
22849;SDS011;11591;44.792;10.358;2022-11-15T14:12:57;45.67;;;19.55;;
22849;SDS011;11591;44.792;10.358;2022-11-15T14:18:02;48.45;;;20.55;;
22849;SDS011;11591;44.792;10.358;2022-11-15T14:25:54;44.60;;;19.50;;
22849;SDS011;11591;44.792;10.358;2022-11-15T14:30:50;43.97;;;18.88;;
22849;SDS011;11591;44.792;10.358;2022-11-15T14:33:19;43.88;;;18.83;;
22849;SDS011;11591;44.792;10.358;2022-11-15T14:35:58;47.08;;;19.85;;
22849;SDS011;11591;44.792;10.358;2022-11-15T14:38:28;42.53;;;18.92;;
22849;SDS011;11591;44.792;10.358;2022-11-15T14:40:54;41.10;;;18.17;;
22849;SDS011;11591;44.792;10.358;2022-11-15T14:43:20;42.28;;;17.58;;
22849;SDS011;11591;44.792;10.358;2022-11-15T14:45:47;48.63;;;19.52;;
22849;SDS011;11591;44.792;10.358;2022-11-15T14:48:13;44.28;;;18.80;;
22849;SDS011;11591;44.792;10.358;2022-11-15T14:50:39;45.13;;;18.60;;
22849;SDS011;11591;44.792;10.358;2022-11-15T14:53:05;43.22;;;18.20;;
22849;SDS011;11591;44.792;10.358;2022-11-15T14:55:32;43.22;;;18.98;;
22849;SDS011;11591;44.792;10.358;2022-11-15T14:58:04;40.90;;;17.52;;
22849;SDS011;11591;44.792;10.358;2022-11-15T15:00:33;39.92;;;17.55;;
22849;SDS011;11591;44.792;10.358;2022-11-15T15:03:00;40.13;;;17.30;;
22849;SDS011;11591;44.792;10.358;2022-11-15T15:08:03;43.45;;;17.63;;
22849;SDS011;11591;44.792;10.358;2022-11-15T15:10:31;46.47;;;19.17;;
22849;SDS011;11591;44.792;10.358;2022-11-15T15:13:02;44.10;;;19.02;;
22849;SDS011;11591;44.792;10.358;2022-11-15T15:15:34;42.72;;;18.63;;
22849;SDS011;11591;44.792;10.358;2022-11-15T15:18:02;47.10;;;19.42;;
22849;SDS011;11591;44.792;10.358;2022-11-15T15:20:30;41.05;;;18.77;;
22849;SDS011;11591;44.792;10.358;2022-11-15T15:22:57;44.30;;;18.23;;
22849;SDS011;11591;44.792;10.358;2022-11-15T15:25:26;45.85;;;19.48;;
22849;SDS011;11591;44.792;10.358;2022-11-15T15:27:54;50.00;;;20.70;;
22849;SDS011;11591;44.792;10.358;2022-11-15T15:30:21;43.55;;;18.92;;
22849;SDS011;11591;44.792;10.358;2022-11-15T15:32:47;44.53;;;19.52;;
22849;SDS011;11591;44.792;10.358;2022-11-15T15:35:14;43.85;;;19.35;;
22849;SDS011;11591;44.792;10.358;2022-11-15T15:37:41;40.00;;;17.35;;
22849;SDS011;11591;44.792;10.358;2022-11-15T15:40:18;43.45;;;18.65;;
22849;SDS011;11591;44.792;10.358;2022-11-15T15:42:45;45.45;;;19.08;;
22849;SDS011;11591;44.792;10.358;2022-11-15T15:45:12;52.58;;;19.55;;
22849;SDS011;11591;44.792;10.358;2022-11-15T15:47:40;47.20;;;20.00;;
22849;SDS011;11591;44.792;10.358;2022-11-15T15:50:23;46.35;;;19.35;;
22849;SDS011;11591;44.792;10.358;2022-11-15T15:52:59;46.08;;;20.20;;
22849;SDS011;11591;44.792;10.358;2022-11-15T15:55:26;44.28;;;19.88;;
22849;SDS011;11591;44.792;10.358;2022-11-15T15:57:53;40.92;;;18.38;;
22849;SDS011;11591;44.792;10.358;2022-11-15T16:00:19;49.15;;;19.20;;
22849;SDS011;11591;44.792;10.358;2022-11-15T16:02:46;43.47;;;19.00;;
22849;SDS011;11591;44.792;10.358;2022-11-15T16:05:12;41.67;;;18.35;;
22849;SDS011;11591;44.792;10.358;2022-11-15T16:07:38;48.65;;;20.17;;
22849;SDS011;11591;44.792;10.358;2022-11-15T16:10:19;46.15;;;20.08;;
22849;SDS011;11591;44.792;10.358;2022-11-15T16:12:52;44.95;;;19.23;;
22849;SDS011;11591;44.792;10.358;2022-11-15T16:15:19;44.13;;;18.77;;
22849;SDS011;11591;44.792;10.358;2022-11-15T16:17:50;45.70;;;19.15;;
22849;SDS011;11591;44.792;10.358;2022-11-15T16:23:17;44.40;;;19.83;;
22849;SDS011;11591;44.792;10.358;2022-11-15T16:25:48;47.53;;;19.65;;
22849;SDS011;11591;44.792;10.358;2022-11-15T16:30:48;46.42;;;18.67;;
22849;SDS011;11591;44.792;10.358;2022-11-15T16:33:23;39.85;;;19.45;;
22849;SDS011;11591;44.792;10.358;2022-11-15T16:35:49;44.92;;;18.65;;
22849;SDS011;11591;44.792;10.358;2022-11-15T16:38:15;38.35;;;18.50;;
22849;SDS011;11591;44.792;10.358;2022-11-15T16:40:42;40.15;;;18.80;;
22849;SDS011;11591;44.792;10.358;2022-11-15T16:43:08;42.78;;;18.95;;
22849;SDS011;11591;44.792;10.358;2022-11-15T16:45:34;41.22;;;18.98;;
22849;SDS011;11591;44.792;10.358;2022-11-15T16:48:00;43.33;;;19.75;;
22849;SDS011;11591;44.792;10.358;2022-11-15T16:50:28;41.17;;;18.67;;
22849;SDS011;11591;44.792;10.358;2022-11-15T16:52:57;44.30;;;18.90;;
22849;SDS011;11591;44.792;10.358;2022-11-15T16:55:24;41.05;;;19.05;;
22849;SDS011;11591;44.792;10.358;2022-11-15T16:57:52;41.95;;;19.13;;
22849;SDS011;11591;44.792;10.358;2022-11-15T17:00:19;45.70;;;19.92;;
22849;SDS011;11591;44.792;10.358;2022-11-15T17:02:46;47.92;;;20.70;;
22849;SDS011;11591;44.792;10.358;2022-11-15T17:05:14;40.92;;;18.73;;
22849;SDS011;11591;44.792;10.358;2022-11-15T17:07:40;42.95;;;19.13;;
22849;SDS011;11591;44.792;10.358;2022-11-15T17:10:07;48.17;;;19.50;;
22849;SDS011;11591;44.792;10.358;2022-11-15T17:12:35;41.90;;;19.80;;
22849;SDS011;11591;44.792;10.358;2022-11-15T17:15:02;45.65;;;20.23;;
22849;SDS011;11591;44.792;10.358;2022-11-15T17:17:29;48.45;;;21.20;;
22849;SDS011;11591;44.792;10.358;2022-11-15T17:19:55;48.90;;;20.45;;
22849;SDS011;11591;44.792;10.358;2022-11-15T17:22:21;43.22;;;19.48;;
22849;SDS011;11591;44.792;10.358;2022-11-15T17:24:47;42.42;;;18.95;;
22849;SDS011;11591;44.792;10.358;2022-11-15T17:27:13;43.58;;;18.52;;
22849;SDS011;11591;44.792;10.358;2022-11-15T17:29:39;44.40;;;18.85;;
22849;SDS011;11591;44.792;10.358;2022-11-15T17:32:05;39.45;;;18.83;;
22849;SDS011;11591;44.792;10.358;2022-11-15T17:34:32;42.88;;;18.92;;
22849;SDS011;11591;44.792;10.358;2022-11-15T17:36:58;42.95;;;18.73;;
22849;SDS011;11591;44.792;10.358;2022-11-15T17:39:23;42.20;;;18.48;;